Time;durP1;ratioP1;P1;durP2;ratioP2;P2;SDS_P1;SDS_P2;PMS_P1;PMS_P2;Temp;Humidity;BMP_temperature;BMP_pressure;BME280_temperature;BME280_humidity;BME280_pressure;Samples;Min_cycle;Max_cycle;Signal;HPM_P1;HPM_P2
2024/02/19 00:05:00;;;;;;;5.07;2.20;;;;;;;;;;10581665;27;20031;-75
2024/02/19 00:10:05;;;;;;;5.45;2.35;;;;;;;;;;10574780;27;20043;-75
2024/02/19 00:15:10;;;;;;;3.92;2.10;;;;;;;;;;10573298;27;20136;-75
2024/02/19 00:20:13;;;;;;;4.85;1.98;;;;;;;;;;10565452;28;20044;-75
2024/02/19 00:25:15;;;;;;;4.25;2.30;;;;;;;;;;10559825;27;20480;-73
2024/02/19 00:30:20;;;;;;;3.42;1.98;;;;;;;;;;10568741;28;20462;-74
2024/02/19 00:35:23;;;;;;;4.05;1.73;;;;;;;;;;10571696;27;20205;-75
2024/02/19 00:40:27;;;;;;;3.28;1.58;;;;;;;;;;10568584;27;20048;-75
2024/02/19 00:45:31;;;;;;;4.85;1.75;;;;;;;;;;10580710;27;20071;-76
2024/02/19 00:50:34;;;;;;;2.08;1.25;;;;;;;;;;10570876;27;20047;-76
2024/02/19 00:55:37;;;;;;;2.35;1.20;;;;;;;;;;10560165;27;20386;-76
2024/02/19 01:00:41;;;;;;;2.22;1.40;;;;;;;;;;10570759;27;20148;-77
2024/02/19 01:05:44;;;;;;;2.63;1.13;;;;;;;;;;10573239;27;20048;-74
2024/02/19 01:10:47;;;;;;;2.78;1.23;;;;;;;;;;10582798;27;20701;-76
2024/02/19 01:15:51;;;;;;;2.20;1.08;;;;;;;;;;10570814;27;20100;-75
2024/02/19 01:20:55;;;;;;;;;;;;;;;;;;10575158;27;20130;-76
2024/02/19 01:25:58;;;;;;;1.85;0.85;;;;;;;;;;10568892;27;20364;-76
2024/02/19 01:31:02;;;;;;;2.80;0.75;;;;;;;;;;10560647;27;20044;-76
2024/02/19 01:36:05;;;;;;;;;;;;;;;;;;10571916;27;20031;-76
2024/02/19 01:41:08;;;;;;;1.08;0.60;;;;;;;;;;10563078;27;19992;-76
2024/02/19 01:46:15;;;;;;;2.03;0.50;;;;;;;;;;10561698;28;20035;-77
2024/02/19 01:51:19;;;;;;;0.68;0.40;;;;;;;;;;10564352;28;20121;-77
2024/02/19 01:56:22;;;;;;;0.32;0.30;;;;;;;;;;10565976;27;20031;-76
2024/02/19 02:01:27;;;;;;;0.40;0.40;;;;;;;;;;10568932;28;20435;-76
2024/02/19 02:06:30;;;;;;;0.30;0.30;;;;;;;;;;10566026;28;20075;-77
2024/02/19 02:11:33;;;;;;;1.00;0.38;;;;;;;;;;10570121;28;20097;-76
2024/02/19 02:16:37;;;;;;;0.20;0.20;;;;;;;;;;10564638;28;20066;-77
2024/02/19 02:21:41;;;;;;;0.13;0.13;;;;;;;;;;10569349;28;20135;-76
2024/02/19 02:26:45;;;;;;;0.03;0.00;;;;;;;;;;10572268;27;20548;-76
2024/02/19 02:31:48;;;;;;;;;;;;;;;;;;10576335;27;20148;-76
2024/02/19 02:36:51;;;;;;;0.00;0.00;;;;;;;;;;10569048;27;19926;-76
2024/02/19 02:41:55;;;;;;;0.40;0.20;;;;;;;;;;10573275;27;20069;-77
2024/02/19 02:46:57;;;;;;;0.15;0.10;;;;;;;;;;10571529;27;20071;-77
2024/02/19 02:52:00;;;;;;;0.20;0.10;;;;;;;;;;10568483;27;20043;-76
2024/02/19 02:57:04;;;;;;;0.20;0.20;;;;;;;;;;10583816;27;20188;-77
2024/02/19 03:02:07;;;;;;;0.15;0.15;;;;;;;;;;10575369;27;20094;-76
2024/02/19 03:07:10;;;;;;;0.13;0.13;;;;;;;;;;10569971;27;20097;-76
2024/02/19 03:12:14;;;;;;;0.08;0.08;;;;;;;;;;10573060;28;20039;-76
2024/02/19 03:17:19;;;;;;;0.70;0.20;;;;;;;;;;10559833;27;20054;-75
2024/02/19 03:22:21;;;;;;;0.20;0.10;;;;;;;;;;10569789;27;20047;-76
2024/02/19 03:27:25;;;;;;;0.20;0.20;;;;;;;;;;10567795;27;20044;-76
2024/02/19 03:32:28;;;;;;;;;;;;;;;;;;10564450;27;20050;-76
2024/02/19 03:37:31;;;;;;;0.55;0.43;;;;;;;;;;10569999;27;19919;-76
2024/02/19 03:42:35;;;;;;;0.47;0.35;;;;;;;;;;10572224;27;20050;-76
2024/02/19 03:47:39;;;;;;;0.35;0.10;;;;;;;;;;10580053;27;20063;-76
2024/02/19 03:52:41;;;;;;;0.30;0.20;;;;;;;;;;10575740;27;20523;-77
2024/02/19 03:57:46;;;;;;;2.95;0.10;;;;;;;;;;10563197;27;20031;-76
2024/02/19 04:02:49;;;;;;;0.00;0.00;;;;;;;;;;10555791;27;20202;-76
2024/02/19 04:07:51;;;;;;;0.47;0.28;;;;;;;;;;10574257;27;20481;-76
2024/02/19 04:12:55;;;;;;;0.10;0.10;;;;;;;;;;10565814;27;20081;-76
2024/02/19 04:17:59;;;;;;;0.30;0.13;;;;;;;;;;10571050;27;20100;-77
2024/02/19 04:23:02;;;;;;;0.47;0.20;;;;;;;;;;10561286;27;20040;-77
2024/02/19 04:28:07;;;;;;;0.25;0.25;;;;;;;;;;10573019;27;20094;-77
2024/02/19 04:33:10;;;;;;;0.63;0.30;;;;;;;;;;10573365;27;20043;-78
2024/02/19 04:38:13;;;;;;;0.30;0.10;;;;;;;;;;10560589;27;20040;-77
2024/02/19 04:43:17;;;;;;;0.17;0.17;;;;;;;;;;10562935;27;20063;-75
2024/02/19 04:48:20;;;;;;;0.40;0.30;;;;;;;;;;10568105;27;20043;-76
2024/02/19 04:53:23;;;;;;;1.02;0.43;;;;;;;;;;10564721;27;20070;-77
2024/02/19 04:58:27;;;;;;;0.28;0.28;;;;;;;;;;10568388;27;20067;-76
2024/02/19 05:03:30;;;;;;;1.30;0.65;;;;;;;;;;10559292;27;20043;-76
2024/02/19 05:08:33;;;;;;;1.13;0.70;;;;;;;;;;10567539;27;20066;-75
2024/02/19 05:13:38;;;;;;;1.08;0.40;;;;;;;;;;10557438;28;20108;-76
2024/02/19 05:18:41;;;;;;;0.60;0.50;;;;;;;;;;10572139;27;20129;-76
2024/02/19 05:23:44;;;;;;;0.50;0.50;;;;;;;;;;10576102;27;20049;-76
2024/02/19 05:28:48;;;;;;;0.30;0.30;;;;;;;;;;10559700;28;20039;-76
2024/02/19 05:33:51;;;;;;;;;;;;;;;;;;10570305;27;20069;-76
2024/02/19 05:38:53;;;;;;;0.80;0.68;;;;;;;;;;10565904;27;20410;-76
2024/02/19 05:43:57;;;;;;;0.50;0.50;;;;;;;;;;10561848;28;20493;-76
2024/02/19 05:49:00;;;;;;;0.75;0.70;;;;;;;;;;10576567;27;20147;-76
2024/02/19 05:54:04;;;;;;;0.40;0.40;;;;;;;;;;10565727;27;20107;-74
2024/02/19 05:59:08;;;;;;;2.45;1.00;;;;;;;;;;10555791;28;20104;-75
2024/02/19 06:04:11;;;;;;;1.05;0.55;;;;;;;;;;10564544;28;20093;-75
2024/02/19 06:09:14;;;;;;;0.98;0.88;;;;;;;;;;10559740;28;20040;-76
2024/02/19 06:14:18;;;;;;;2.42;1.10;;;;;;;;;;10560422;28;20043;-76
2024/02/19 06:19:20;;;;;;;0.80;0.57;;;;;;;;;;10560381;28;20565;-75
2024/02/19 06:24:24;;;;;;;1.42;0.80;;;;;;;;;;10554006;28;20094;-75
2024/02/19 06:29:28;;;;;;;0.80;0.57;;;;;;;;;;10570533;28;20039;-76
2024/02/19 06:34:34;;;;;;;;;;;;;;;;;;10556881;28;20478;-76
2024/02/19 06:39:39;;;;;;;0.65;0.60;;;;;;;;;;10561461;28;20410;-76
2024/02/19 06:44:44;;;;;;;0.70;0.60;;;;;;;;;;10563422;28;20097;-75
2024/02/19 06:49:46;;;;;;;;;;;;;;;;;;10556798;28;20476;-76
2024/02/19 06:54:50;;;;;;;1.33;1.00;;;;;;;;;;10562536;28;20385;-76
2024/02/19 06:59:54;;;;;;;0.60;0.40;;;;;;;;;;10557841;28;20119;-75
2024/02/19 07:04:56;;;;;;;0.90;0.70;;;;;;;;;;10562272;28;20071;-76
2024/02/19 07:09:59;;;;;;;0.73;0.70;;;;;;;;;;10570502;27;20047;-76
2024/02/19 07:15:04;;;;;;;1.08;0.40;;;;;;;;;;10562807;27;20517;-76
2024/02/19 07:20:08;;;;;;;1.08;0.95;;;;;;;;;;10577681;27;20047;-76
2024/02/19 07:25:11;;;;;;;0.43;0.43;;;;;;;;;;10566184;27;20040;-75
2024/02/19 07:30:24;;;;;;;0.50;0.50;;;;;;;;;;10573568;27;20078;-75
2024/02/19 07:35:27;;;;;;;;;;;;;;;;;;10574153;27;20051;-76
2024/02/19 07:40:29;;;;;;;0.50;0.50;;;;;;;;;;10565716;27;20018;-76
2024/02/19 07:45:38;;;;;;;0.63;0.38;;;;;;;;;;10572802;27;20036;-77
2024/02/19 07:50:42;;;;;;;1.27;0.70;;;;;;;;;;10567714;28;20609;-76
2024/02/19 07:55:44;;;;;;;0.97;0.67;;;;;;;;;;10562825;27;20513;-76
2024/02/19 08:00:50;;;;;;;0.80;0.52;;;;;;;;;;10569895;27;20039;-76
2024/02/19 08:05:53;;;;;;;3.00;0.68;;;;;;;;;;10575928;27;20464;-76
2024/02/19 08:10:55;;;;;;;2.08;1.02;;;;;;;;;;10562996;27;20032;-76
2024/02/19 08:15:59;;;;;;;2.47;0.80;;;;;;;;;;10571364;27;20075;-76
2024/02/19 08:21:03;;;;;;;1.13;0.75;;;;;;;;;;10566365;27;20043;-78
2024/02/19 08:26:06;;;;;;;1.57;0.80;;;;;;;;;;10572250;27;20465;-75
2024/02/19 08:31:10;;;;;;;2.20;1.15;;;;;;;;;;10565867;27;20027;-75
2024/02/19 08:36:14;;;;;;;2.53;1.38;;;;;;;;;;10550294;27;20085;-76
2024/02/19 08:41:18;;;;;;;3.05;1.02;;;;;;;;;;10570062;27;20043;-75
2024/02/19 08:46:22;;;;;;;1.15;0.82;;;;;;;;;;10565085;27;20878;-76
2024/02/19 08:51:25;;;;;;;3.17;1.08;;;;;;;;;;10565301;27;20048;-76
2024/02/19 08:56:28;;;;;;;5.18;1.67;;;;;;;;;;10566371;27;20489;-74
2024/02/19 09:01:32;;;;;;;3.53;1.20;;;;;;;;;;10567904;27;20123;-75
2024/02/19 09:06:35;;;;;;;2.35;1.30;;;;;;;;;;10569516;27;20066;-76
2024/02/19 09:11:38;;;;;;;1.63;1.30;;;;;;;;;;10554648;27;20059;-76
2024/02/19 09:16:42;;;;;;;4.55;1.38;;;;;;;;;;10557550;27;20063;-76
2024/02/19 09:21:44;;;;;;;6.78;1.60;;;;;;;;;;10575585;27;20608;-75
2024/02/19 09:26:47;;;;;;;3.03;1.30;;;;;;;;;;10547802;27;20042;-77
2024/02/19 09:31:51;;;;;;;3.28;1.30;;;;;;;;;;10567445;27;20047;-76
2024/02/19 09:36:54;;;;;;;3.70;1.30;;;;;;;;;;10575292;27;20032;-76
2024/02/19 09:41:57;;;;;;;2.77;1.20;;;;;;;;;;10558856;27;20044;-77
2024/02/19 09:47:02;;;;;;;2.70;1.17;;;;;;;;;;10560793;27;20413;-77
2024/02/19 09:52:05;;;;;;;2.38;1.33;;;;;;;;;;10559894;27;20478;-76
2024/02/19 09:57:10;;;;;;;1.45;1.20;;;;;;;;;;10557859;27;20469;-77
2024/02/19 10:02:18;;;;;;;2.85;1.27;;;;;;;;;;10559079;28;20064;-77
2024/02/19 10:07:21;;;;;;;0.77;0.77;;;;;;;;;;10568564;28;20553;-77
2024/02/19 10:12:24;;;;;;;2.83;1.00;;;;;;;;;;10564786;28;20520;-76
2024/02/19 10:17:29;;;;;;;3.22;1.50;;;;;;;;;;10563981;28;20045;-77
2024/02/19 10:22:32;;;;;;;3.70;0.93;;;;;;;;;;10555579;28;20044;-76
2024/02/19 10:27:36;;;;;;;1.45;0.85;;;;;;;;;;10561352;28;20460;-76
2024/02/19 10:32:45;;;;;;;2.58;0.98;;;;;;;;;;10559991;28;20081;-77
2024/02/19 10:37:49;;;;;;;1.70;0.80;;;;;;;;;;10570706;28;20046;-76
2024/02/19 10:42:52;;;;;;;2.85;0.57;;;;;;;;;;10547497;28;20048;-76
2024/02/19 10:47:56;;;;;;;2.10;0.80;;;;;;;;;;10563542;28;20040;-77
2024/02/19 10:52:59;;;;;;;2.42;0.88;;;;;;;;;;10569704;27;20497;-75
2024/02/19 10:58:02;;;;;;;1.70;0.63;;;;;;;;;;10567366;27;20109;-76
2024/02/19 11:03:07;;;;;;;1.90;0.70;;;;;;;;;;10571632;27;20132;-76
2024/02/19 11:08:18;;;;;;;0.90;0.80;;;;;;;;;;10580595;27;20383;-76
2024/02/19 11:13:25;;;;;;;2.83;1.10;;;;;;;;;;10562878;27;20035;-75
2024/02/19 11:18:31;;;;;;;2.25;1.10;;;;;;;;;;10570372;27;20122;-75
2024/02/19 11:23:34;;;;;;;1.48;0.80;;;;;;;;;;10570058;27;20039;-76
2024/02/19 11:28:37;;;;;;;3.60;1.00;;;;;;;;;;10564989;27;20100;-76
2024/02/19 11:33:42;;;;;;;3.70;1.10;;;;;;;;;;10564896;27;20039;-76
2024/02/19 11:38:45;;;;;;;1.15;0.65;;;;;;;;;;10570448;27;20036;-76
2024/02/19 11:43:48;;;;;;;1.60;1.00;;;;;;;;;;10577867;27;20408;-75
2024/02/19 11:48:52;;;;;;;1.52;0.82;;;;;;;;;;10566361;27;20066;-76
2024/02/19 11:53:55;;;;;;;1.20;0.77;;;;;;;;;;10568898;27;20048;-75
2024/02/19 11:58:58;;;;;;;1.33;0.87;;;;;;;;;;10584244;27;20481;-75
2024/02/19 12:04:03;;;;;;;1.88;1.10;;;;;;;;;;10576222;27;20051;-75
2024/02/19 12:09:08;;;;;;;3.03;1.10;;;;;;;;;;10572489;27;20070;-75
2024/02/19 12:14:11;;;;;;;2.10;1.00;;;;;;;;;;10579795;27;20044;-73
2024/02/19 12:19:15;;;;;;;3.47;1.10;;;;;;;;;;10573642;27;20032;-74
2024/02/19 12:24:17;;;;;;;3.85;1.20;;;;;;;;;;10577139;27;20047;-75
2024/02/19 12:29:20;;;;;;;2.45;1.00;;;;;;;;;;10567331;27;20083;-76
2024/02/19 12:34:25;;;;;;;1.63;0.80;;;;;;;;;;10572881;27;20048;-75
2024/02/19 12:39:30;;;;;;;3.35;0.90;;;;;;;;;;10572176;27;20035;-75
2024/02/19 12:44:33;;;;;;;2.70;0.70;;;;;;;;;;10569892;28;20071;-77
2024/02/19 12:49:37;;;;;;;2.55;0.73;;;;;;;;;;10576609;27;20081;-76
2024/02/19 12:54:46;;;;;;;3.75;0.90;;;;;;;;;;10559779;28;20071;-75
2024/02/19 12:59:49;;;;;;;2.50;1.00;;;;;;;;;;10566894;27;20127;-76
2024/02/19 13:04:54;;;;;;;1.73;1.17;;;;;;;;;;10576057;27;20259;-74
2024/02/19 13:09:57;;;;;;;1.90;1.00;;;;;;;;;;10561676;28;20056;-75
2024/02/19 13:15:00;;;;;;;3.87;0.93;;;;;;;;;;10570910;27;20397;-74
2024/02/19 13:20:06;;;;;;;3.15;0.80;;;;;;;;;;10570109;27;20036;-78
2024/02/19 13:25:09;;;;;;;1.35;0.93;;;;;;;;;;10573273;27;20043;-76
2024/02/19 13:30:13;;;;;;;1.90;0.70;;;;;;;;;;10572025;27;20110;-75
2024/02/19 13:35:17;;;;;;;2.33;0.70;;;;;;;;;;10566831;27;20066;-75
2024/02/19 13:40:21;;;;;;;1.10;0.73;;;;;;;;;;10559143;27;20032;-75
2024/02/19 13:45:25;;;;;;;4.10;0.60;;;;;;;;;;10572527;27;20543;-75
2024/02/19 13:50:29;;;;;;;1.50;0.47;;;;;;;;;;10563322;27;20047;-76
2024/02/19 13:55:32;;;;;;;1.42;0.70;;;;;;;;;;10570167;27;20150;-74
2024/02/19 14:00:35;;;;;;;1.30;1.17;;;;;;;;;;10570089;27;20538;-75
2024/02/19 14:05:39;;;;;;;1.70;0.90;;;;;;;;;;10560869;27;20047;-76
2024/02/19 14:10:42;;;;;;;3.88;1.27;;;;;;;;;;10568462;28;20450;-75
2024/02/19 14:15:46;;;;;;;1.07;0.80;;;;;;;;;;10559492;28;20426;-76
2024/02/19 14:20:50;;;;;;;1.45;0.95;;;;;;;;;;10578789;27;20051;-75
2024/02/19 14:25:53;;;;;;;2.70;0.98;;;;;;;;;;10578672;27;20055;-73
2024/02/19 14:30:56;;;;;;;1.63;0.93;;;;;;;;;;10572806;27;20050;-75
2024/02/19 14:36:00;;;;;;;1.23;0.70;;;;;;;;;;10576734;27;20297;-75
2024/02/19 14:41:04;;;;;;;0.88;0.80;;;;;;;;;;10570324;27;20083;-76
2024/02/19 14:46:07;;;;;;;2.20;0.60;;;;;;;;;;10572861;27;20070;-76
2024/02/19 14:51:11;;;;;;;1.80;0.50;;;;;;;;;;10567233;27;20089;-76
2024/02/19 14:56:18;;;;;;;1.95;0.60;;;;;;;;;;10573918;27;20046;-75
2024/02/19 15:01:21;;;;;;;0.60;0.40;;;;;;;;;;10578136;27;20036;-75
2024/02/19 15:06:25;;;;;;;1.40;0.60;;;;;;;;;;10567236;27;20035;-75
2024/02/19 15:11:29;;;;;;;0.95;0.60;;;;;;;;;;10568336;27;20039;-76
2024/02/19 15:16:32;;;;;;;0.68;0.50;;;;;;;;;;10574861;27;20056;-74
2024/02/19 15:21:37;;;;;;;1.52;0.80;;;;;;;;;;10574814;27;20052;-75
2024/02/19 15:26:40;;;;;;;2.40;0.55;;;;;;;;;;10572769;27;20073;-74
2024/02/19 15:31:43;;;;;;;3.50;0.70;;;;;;;;;;10569789;27;20063;-77
2024/02/19 15:36:47;;;;;;;3.83;0.77;;;;;;;;;;10570272;28;20063;-75
2024/02/19 15:41:50;;;;;;;2.95;0.85;;;;;;;;;;10575778;27;20050;-74
2024/02/19 15:46:53;;;;;;;1.83;0.70;;;;;;;;;;10560348;27;20052;-76
2024/02/19 15:51:57;;;;;;;2.88;0.60;;;;;;;;;;10577408;27;20036;-74
2024/02/19 15:56:59;;;;;;;;;;;;;;;;;;10569670;27;20036;-75
2024/02/19 16:02:03;;;;;;;1.58;0.73;;;;;;;;;;10575990;27;19919;-77
2024/02/19 16:07:08;;;;;;;2.35;0.60;;;;;;;;;;10569078;27;20036;-74
2024/02/19 16:12:11;;;;;;;2.38;0.65;;;;;;;;;;10563998;27;20579;-75
2024/02/19 16:17:16;;;;;;;1.73;0.63;;;;;;;;;;10573413;27;20052;-76
2024/02/19 16:22:21;;;;;;;4.22;0.88;;;;;;;;;;10565116;27;20122;-75
2024/02/19 16:27:24;;;;;;;2.63;0.82;;;;;;;;;;10566932;27;20472;-76
2024/02/19 16:32:27;;;;;;;3.40;1.10;;;;;;;;;;10562312;27;20043;-74
2024/02/19 16:37:31;;;;;;;1.23;0.70;;;;;;;;;;10568093;27;20324;-76
2024/02/19 16:42:35;;;;;;;;;;;;;;;;;;10572697;27;20476;-76
2024/02/19 16:47:38;;;;;;;3.63;0.98;;;;;;;;;;10566188;27;19926;-75
2024/02/19 16:52:42;;;;;;;3.20;1.10;;;;;;;;;;10564361;27;20553;-75
2024/02/19 16:57:45;;;;;;;;;;;;;;;;;;10563848;28;20096;-74
2024/02/19 17:02:47;;;;;;;2.33;1.05;;;;;;;;;;10546788;27;19927;-75
2024/02/19 17:07:51;;;;;;;4.13;0.85;;;;;;;;;;10565310;27;20071;-75
2024/02/19 17:12:54;;;;;;;1.55;0.77;;;;;;;;;;10567230;27;20052;-75
2024/02/19 17:17:59;;;;;;;1.55;0.90;;;;;;;;;;10566773;27;20392;-75
2024/02/19 17:23:05;;;;;;;2.85;0.85;;;;;;;;;;10572683;27;20047;-76
2024/02/19 17:28:08;;;;;;;3.15;0.90;;;;;;;;;;10568905;27;20088;-75
2024/02/19 17:33:11;;;;;;;2.40;1.30;;;;;;;;;;10567258;27;20048;-75
2024/02/19 17:38:15;;;;;;;4.03;1.05;;;;;;;;;;10559123;28;20100;-75
2024/02/19 17:43:17;;;;;;;2.85;0.70;;;;;;;;;;10562095;27;20046;-75
2024/02/19 17:48:21;;;;;;;3.25;1.30;;;;;;;;;;10558511;27;20071;-75
2024/02/19 17:53:25;;;;;;;4.70;1.30;;;;;;;;;;10560094;28;20044;-75
2024/02/19 17:58:28;;;;;;;2.53;1.00;;;;;;;;;;10573046;27;20435;-76
2024/02/19 18:03:30;;;;;;;3.90;1.40;;;;;;;;;;10561481;28;20100;-75
2024/02/19 18:08:35;;;;;;;3.38;1.10;;;;;;;;;;10568977;28;20043;-75
2024/02/19 18:13:38;;;;;;;2.45;1.13;;;;;;;;;;10567249;28;20596;-76
2024/02/19 18:18:41;;;;;;;3.00;0.73;;;;;;;;;;10571715;28;20146;-76
2024/02/19 18:23:47;;;;;;;4.95;1.63;;;;;;;;;;10557165;28;20096;-75
2024/02/19 18:28:51;;;;;;;2.95;0.95;;;;;;;;;;10560171;28;20416;-75
2024/02/19 18:33:55;;;;;;;6.10;1.65;;;;;;;;;;10552875;28;20646;-75
2024/02/19 18:39:04;;;;;;;4.13;1.85;;;;;;;;;;10567105;28;20517;-76
2024/02/19 18:44:07;;;;;;;3.92;1.60;;;;;;;;;;10566245;28;20078;-74
2024/02/19 18:49:09;;;;;;;8.57;1.50;;;;;;;;;;10558406;28;20127;-75
2024/02/19 18:54:13;;;;;;;2.50;1.20;;;;;;;;;;10550295;28;20051;-75
2024/02/19 18:59:17;;;;;;;3.08;1.45;;;;;;;;;;10558960;28;20043;-76
2024/02/19 19:04:19;;;;;;;3.03;1.17;;;;;;;;;;10567796;28;20047;-75
2024/02/19 19:09:24;;;;;;;4.43;0.98;;;;;;;;;;10566542;27;20048;-75
2024/02/19 19:14:27;;;;;;;2.00;1.00;;;;;;;;;;10565493;27;20104;-75
2024/02/19 19:19:30;;;;;;;3.85;1.42;;;;;;;;;;10570443;27;20040;-76
2024/02/19 19:24:35;;;;;;;2.80;1.48;;;;;;;;;;10567020;27;20477;-75
2024/02/19 19:29:37;;;;;;;5.65;1.50;;;;;;;;;;10573906;27;20063;-76
2024/02/19 19:34:40;;;;;;;5.20;1.00;;;;;;;;;;10570591;27;20051;-76
2024/02/19 19:39:47;;;;;;;3.25;1.38;;;;;;;;;;10570569;27;20134;-77
2024/02/19 19:44:53;;;;;;;0.90;0.47;;;;;;;;;;10579056;27;20573;-76
2024/02/19 19:49:56;;;;;;;4.72;1.85;;;;;;;;;;10564818;27;20043;-75
2024/02/19 19:55:01;;;;;;;1.67;0.70;;;;;;;;;;10562584;27;20050;-77
2024/02/19 20:00:05;;;;;;;1.25;0.90;;;;;;;;;;10567027;27;20032;-76
2024/02/19 20:05:07;;;;;;;;;;;;;;;;;;10564432;27;20393;-75
2024/02/19 20:10:13;;;;;;;2.10;1.10;;;;;;;;;;10569265;28;20015;-76
2024/02/19 20:15:17;;;;;;;2.28;1.10;;;;;;;;;;10568103;28;20036;-75
2024/02/19 20:20:19;;;;;;;4.07;1.50;;;;;;;;;;10571976;28;20035;-76
2024/02/19 20:25:24;;;;;;;4.30;1.70;;;;;;;;;;10570629;27;20188;-75
2024/02/19 20:30:27;;;;;;;5.40;1.80;;;;;;;;;;10560448;28;20067;-75
2024/02/19 20:35:30;;;;;;;4.05;1.73;;;;;;;;;;10563873;27;20054;-75
2024/02/19 20:40:34;;;;;;;2.83;1.58;;;;;;;;;;10557273;27;20078;-74
2024/02/19 20:45:37;;;;;;;4.15;1.77;;;;;;;;;;10564253;27;20108;-76
2024/02/19 20:50:40;;;;;;;2.13;1.33;;;;;;;;;;10569927;27;20132;-75
2024/02/19 20:55:44;;;;;;;4.53;1.40;;;;;;;;;;10570108;27;20051;-75
2024/02/19 21:00:47;;;;;;;2.05;1.02;;;;;;;;;;10579656;27;20028;-75
2024/02/19 21:05:50;;;;;;;7.05;2.25;;;;;;;;;;10542111;28;20044;-75
2024/02/19 21:10:54;;;;;;;2.13;1.08;;;;;;;;;;10569764;27;20032;-76
2024/02/19 21:15:57;;;;;;;4.45;2.13;;;;;;;;;;10576396;27;20473;-74
2024/02/19 21:21:00;;;;;;;4.33;1.73;;;;;;;;;;10560541;27;20042;-74
2024/02/19 21:26:05;;;;;;;5.20;2.35;;;;;;;;;;10564149;27;20043;-75
2024/02/19 21:31:07;;;;;;;5.18;2.00;;;;;;;;;;10561365;27;20138;-76
2024/02/19 21:36:10;;;;;;;5.28;1.98;;;;;;;;;;10564055;27;20101;-74
2024/02/19 21:41:15;;;;;;;2.30;0.73;;;;;;;;;;10562756;27;20043;-75
2024/02/19 21:46:17;;;;;;;5.40;2.17;;;;;;;;;;10556102;27;20036;-76
2024/02/19 21:51:20;;;;;;;2.40;1.48;;;;;;;;;;10569758;27;20067;-75
2024/02/19 21:56:25;;;;;;;4.35;1.88;;;;;;;;;;10571791;27;20032;-75
2024/02/19 22:01:30;;;;;;;5.18;2.25;;;;;;;;;;10562585;27;20111;-76
2024/02/19 22:06:33;;;;;;;6.05;1.90;;;;;;;;;;10564746;27;20051;-76
2024/02/19 22:11:37;;;;;;;5.40;1.98;;;;;;;;;;10564804;28;20039;-75
2024/02/19 22:16:40;;;;;;;3.58;1.80;;;;;;;;;;10561884;28;20063;-74
2024/02/19 22:21:43;;;;;;;6.00;1.95;;;;;;;;;;10564707;28;20275;-75
2024/02/19 22:26:47;;;;;;;2.72;1.60;;;;;;;;;;10560429;28;20035;-75
2024/02/19 22:31:50;;;;;;;1.90;0.80;;;;;;;;;;10582493;28;20047;-76
2024/02/19 22:36:57;;;;;;;4.28;1.80;;;;;;;;;;10555623;28;20063;-75
2024/02/19 22:42:02;;;;;;;3.08;1.67;;;;;;;;;;10576654;27;20032;-75
2024/02/19 22:47:06;;;;;;;6.07;2.25;;;;;;;;;;10579259;27;20050;-74
2024/02/19 22:52:09;;;;;;;2.92;1.33;;;;;;;;;;10562730;27;20047;-75
2024/02/19 22:57:14;;;;;;;2.70;1.67;;;;;;;;;;10561861;28;20085;-75
2024/02/19 23:02:16;;;;;;;4.95;1.90;;;;;;;;;;10558222;27;20047;-75
2024/02/19 23:07:19;;;;;;;5.85;1.60;;;;;;;;;;10562516;28;20048;-76
2024/02/19 23:12:23;;;;;;;2.85;0.95;;;;;;;;;;10565094;27;20098;-75
2024/02/19 23:17:26;;;;;;;5.75;2.00;;;;;;;;;;10572578;27;20035;-75
2024/02/19 23:22:29;;;;;;;3.83;1.37;;;;;;;;;;10578681;27;20608;-75
2024/02/19 23:27:33;;;;;;;3.28;1.30;;;;;;;;;;10573322;27;20040;-76
2024/02/19 23:32:36;;;;;;;3.63;1.80;;;;;;;;;;10572570;27;20067;-76
2024/02/19 23:37:39;;;;;;;2.03;1.20;;;;;;;;;;10572180;27;20067;-75
2024/02/19 23:42:43;;;;;;;6.30;2.10;;;;;;;;;;10568179;27;20126;-77
2024/02/19 23:47:46;;;;;;;5.55;2.15;;;;;;;;;;10570055;27;20076;-75
2024/02/19 23:52:49;;;;;;;7.00;1.97;;;;;;;;;;10566606;27;20039;-75
2024/02/19 23:57:53;;;;;;;5.07;1.67;;;;;;;;;;10567484;27;20054;-75
